createdAt,value
2022-08-24T00:00:42.792Z,0
2022-08-24T00:01:58.989Z,0
2022-08-24T00:03:15.169Z,0
2022-08-24T00:04:31.133Z,0
2022-08-24T00:05:47.539Z,0
2022-08-24T00:07:03.743Z,0
2022-08-24T00:08:19.929Z,0
2022-08-24T00:09:36.107Z,0
2022-08-24T00:10:52.308Z,0
2022-08-24T00:12:08.273Z,0
2022-08-24T00:13:24.687Z,0
2022-08-24T00:14:40.879Z,0
2022-08-24T00:15:56.838Z,0
2022-08-24T00:17:12.269Z,0
2022-08-24T00:18:28.467Z,0
2022-08-24T00:19:44.651Z,0
2022-08-24T00:21:00.843Z,0
2022-08-24T00:22:17.023Z,0
2022-08-24T00:23:33.216Z,0
2022-08-24T00:24:49.183Z,0
2022-08-24T00:26:05.372Z,0
2022-08-24T00:27:21.773Z,0
2022-08-24T00:28:37.972Z,0
2022-08-24T00:29:53.930Z,0
2022-08-24T00:31:10.340Z,0
2022-08-24T00:32:26.537Z,0
2022-08-24T00:33:41.741Z,0
2022-08-24T00:34:57.694Z,0
2022-08-24T00:36:13.896Z,0
2022-08-24T00:37:30.080Z,0
2022-08-24T00:38:46.277Z,0
2022-08-24T00:40:02.688Z,0
2022-08-24T00:41:18.637Z,0
2022-08-24T00:42:34.833Z,0
2022-08-24T00:43:51.254Z,0
2022-08-24T00:45:07.207Z,0
2022-08-24T00:46:23.633Z,0
2022-08-24T00:47:39.589Z,0
2022-08-24T00:48:56.005Z,0
2022-08-24T00:50:10.991Z,0
2022-08-24T00:51:27.172Z,0
2022-08-24T00:52:43.607Z,0
2022-08-24T00:53:59.793Z,0
2022-08-24T00:55:15.975Z,0
2022-08-24T00:56:32.165Z,0
2022-08-24T00:57:48.118Z,0
2022-08-24T00:59:04.532Z,0
2022-08-24T01:00:20.724Z,0
2022-08-24T01:01:36.910Z,0
2022-08-24T01:02:53.117Z,0
2022-08-24T01:04:09.057Z,0
2022-08-24T01:05:25.253Z,0
2022-08-24T01:06:40.700Z,0
2022-08-24T01:07:56.656Z,0
2022-08-24T01:09:13.072Z,0
2022-08-24T01:10:29.030Z,0
2022-08-24T01:11:45.453Z,0
2022-08-24T01:13:01.392Z,0
2022-08-24T01:14:17.824Z,0
2022-08-24T01:15:33.784Z,0
2022-08-24T01:16:49.967Z,0
2022-08-24T01:18:06.398Z,0
2022-08-24T01:19:22.346Z,0
2022-08-24T01:20:38.546Z,0
2022-08-24T01:21:54.973Z,0
2022-08-24T01:23:09.921Z,0
2022-08-24T01:24:26.360Z,0
2022-08-24T01:25:42.551Z,0
2022-08-24T01:26:58.501Z,0
2022-08-24T01:28:14.685Z,0
2022-08-24T01:29:30.880Z,0
2022-08-24T01:30:47.057Z,0
2022-08-24T01:32:03.484Z,0
2022-08-24T01:33:19.434Z,0
2022-08-24T01:34:35.881Z,0
2022-08-24T01:35:51.828Z,0
2022-08-24T01:37:08.258Z,0
2022-08-24T01:38:24.205Z,0
2022-08-24T01:39:39.647Z,0
2022-08-24T01:40:55.834Z,0
2022-08-24T01:42:12.021Z,0
2022-08-24T01:43:27.977Z,0
2022-08-24T01:44:44.406Z,0
2022-08-24T01:46:00.341Z,0
2022-08-24T01:47:16.773Z,0
2022-08-24T01:48:32.959Z,0
2022-08-24T01:49:49.157Z,0
2022-08-24T01:51:05.101Z,0
2022-08-24T01:52:21.528Z,0
2022-08-24T01:53:37.474Z,0
2022-08-24T01:54:53.670Z,0
2022-08-24T01:56:09.127Z,0
2022-08-24T01:57:25.303Z,0
2022-08-24T01:58:41.243Z,0
2022-08-24T01:59:57.678Z,0
2022-08-24T02:01:13.882Z,0
2022-08-24T02:02:29.821Z,0
2022-08-24T02:03:46.265Z,0
2022-08-24T02:05:02.451Z,0
2022-08-24T02:06:18.378Z,0
2022-08-24T02:07:34.578Z,0
2022-08-24T02:08:50.774Z,0
2022-08-24T02:10:07.193Z,0
2022-08-24T02:11:23.383Z,0
2022-08-24T02:12:38.587Z,0
2022-08-24T02:13:54.782Z,0
2022-08-24T02:15:10.723Z,0
2022-08-24T02:16:26.913Z,0
2022-08-24T02:17:43.356Z,0
2022-08-24T02:18:59.542Z,0
2022-08-24T02:20:14.502Z,0
2022-08-24T02:21:30.691Z,0
2022-08-24T02:22:47.139Z,0
2022-08-24T02:24:03.065Z,0
2022-08-24T02:25:19.500Z,0
2022-08-24T02:26:35.701Z,0
2022-08-24T02:27:51.880Z,0
2022-08-24T02:29:07.827Z,0
2022-08-24T02:30:24.264Z,0
2022-08-24T02:31:40.211Z,0
2022-08-24T02:32:56.648Z,0
2022-08-24T02:34:12.842Z,0
2022-08-24T02:35:29.030Z,0
2022-08-24T02:36:43.965Z,0
2022-08-24T02:38:00.412Z,0
2022-08-24T02:39:16.612Z,0
2022-08-24T02:40:32.799Z,0
2022-08-24T02:41:48.727Z,0
2022-08-24T02:43:05.179Z,0
2022-08-24T02:44:21.101Z,0
2022-08-24T02:45:37.284Z,0
2022-08-24T02:46:53.492Z,0
2022-08-24T02:48:09.938Z,0
2022-08-24T02:49:26.122Z,0
2022-08-24T02:50:42.304Z,0
2022-08-24T02:51:58.498Z,0
2022-08-24T02:53:13.693Z,0
2022-08-24T02:54:29.634Z,0
2022-08-24T02:55:46.078Z,0
2022-08-24T02:57:02.271Z,0
2022-08-24T02:58:18.193Z,0
2022-08-24T02:59:34.399Z,0
2022-08-24T03:00:50.584Z,0
2022-08-24T03:02:06.758Z,0
2022-08-24T03:03:23.224Z,0
2022-08-24T03:04:39.409Z,0
2022-08-24T03:05:55.587Z,0
2022-08-24T03:07:11.523Z,0
2022-08-24T03:08:27.964Z,0
2022-08-24T03:09:42.923Z,0
2022-08-24T03:10:59.367Z,0
2022-08-24T03:12:15.558Z,0
2022-08-24T03:13:31.735Z,0
2022-08-24T03:14:47.938Z,0
2022-08-24T03:16:04.131Z,0
2022-08-24T03:17:20.307Z,0
2022-08-24T03:18:36.503Z,0
2022-08-24T03:19:52.687Z,0
2022-08-24T03:21:08.880Z,0
2022-08-24T03:22:24.812Z,0
2022-08-24T03:23:41.261Z,0
2022-08-24T03:24:57.178Z,0
2022-08-24T03:26:12.647Z,0
2022-08-24T03:27:28.583Z,0
2022-08-24T03:28:45.037Z,0
2022-08-24T03:30:01.220Z,0
2022-08-24T03:31:17.418Z,0
2022-08-24T03:32:33.332Z,0
2022-08-24T03:33:49.779Z,0
2022-08-24T03:35:05.979Z,0
2022-08-24T03:36:21.894Z,0
2022-08-24T03:37:38.077Z,0
2022-08-24T03:38:54.263Z,4
2022-08-24T03:40:10.726Z,4
2022-08-24T03:41:26.925Z,4
2022-08-24T03:42:42.131Z,4
2022-08-24T03:43:58.317Z,4
2022-08-24T03:45:14.242Z,4
2022-08-24T03:46:30.694Z,8
2022-08-24T03:47:46.607Z,8
2022-08-24T03:49:02.806Z,8
2022-08-24T03:50:19.254Z,12
2022-08-24T03:51:35.450Z,16
2022-08-24T03:52:51.364Z,20
2022-08-24T03:54:07.832Z,24
2022-08-24T03:55:24.021Z,24
2022-08-24T03:56:40.198Z,28
2022-08-24T03:57:56.125Z,36
2022-08-24T03:59:11.608Z,40
2022-08-24T04:00:27.782Z,44
2022-08-24T04:01:43.982Z,52
2022-08-24T04:03:00.176Z,56
2022-08-24T04:04:16.367Z,60
2022-08-24T04:05:32.539Z,68
2022-08-24T04:06:48.735Z,76
2022-08-24T04:08:04.658Z,84
2022-08-24T04:09:21.114Z,92
2022-08-24T04:10:37.310Z,100
2022-08-24T04:11:53.487Z,108
2022-08-24T04:13:09.670Z,116
2022-08-24T04:14:25.871Z,128
2022-08-24T04:15:41.069Z,136
2022-08-24T04:16:56.981Z,144
2022-08-24T04:18:13.459Z,156
2022-08-24T04:19:29.639Z,168
2022-08-24T04:20:45.549Z,176
2022-08-24T04:22:01.746Z,188
2022-08-24T04:23:17.927Z,196
2022-08-24T04:24:34.400Z,208
2022-08-24T04:25:50.588Z,216
2022-08-24T04:27:06.500Z,228
2022-08-24T04:28:22.959Z,240
2022-08-24T04:29:39.154Z,248
2022-08-24T04:30:55.060Z,260
2022-08-24T04:32:10.554Z,268
2022-08-24T04:33:26.736Z,280
2022-08-24T04:34:42.656Z,296
2022-08-24T04:35:59.113Z,312
2022-08-24T04:37:15.303Z,316
2022-08-24T04:38:31.486Z,324
2022-08-24T04:39:47.675Z,336
2022-08-24T04:41:03.598Z,344
2022-08-24T04:42:20.064Z,356
2022-08-24T04:43:36.254Z,364
2022-08-24T04:44:52.444Z,380
2022-08-24T04:46:08.342Z,392
2022-08-24T04:47:24.822Z,404
2022-08-24T04:48:40.030Z,416
2022-08-24T04:49:56.219Z,428
2022-08-24T04:51:12.392Z,436
2022-08-24T04:52:28.298Z,448
2022-08-24T04:53:44.785Z,460
2022-08-24T04:55:00.973Z,468
2022-08-24T04:56:16.866Z,480
2022-08-24T04:57:33.354Z,496
2022-08-24T04:58:49.542Z,504
2022-08-24T05:00:05.721Z,516
2022-08-24T05:01:21.632Z,528
2022-08-24T05:02:37.819Z,540
2022-08-24T05:03:54.293Z,552
2022-08-24T05:05:09.221Z,568
2022-08-24T05:06:25.409Z,580
2022-08-24T05:07:41.882Z,600
2022-08-24T05:08:58.071Z,616
2022-08-24T05:10:13.958Z,628
2022-08-24T05:11:30.160Z,632
2022-08-24T05:12:46.630Z,640
2022-08-24T05:14:02.813Z,644
2022-08-24T05:15:19.013Z,660
2022-08-24T05:16:35.194Z,676
2022-08-24T05:17:51.107Z,680
2022-08-24T05:19:07.586Z,676
2022-08-24T05:20:23.771Z,612
2022-08-24T05:21:38.965Z,624
2022-08-24T05:22:55.165Z,628
2022-08-24T05:24:11.068Z,660
2022-08-24T05:25:27.253Z,660
2022-08-24T05:26:43.726Z,660
2022-08-24T05:27:59.924Z,776
2022-08-24T05:29:16.097Z,788
2022-08-24T05:30:31.996Z,780
2022-08-24T05:31:48.486Z,804
2022-08-24T05:33:04.673Z,836
2022-08-24T05:34:20.853Z,856
2022-08-24T05:35:36.767Z,864
2022-08-24T05:36:53.236Z,876
2022-08-24T05:38:08.448Z,888
2022-08-24T05:39:24.336Z,892
2022-08-24T05:40:40.822Z,884
2022-08-24T05:41:56.724Z,888
2022-08-24T05:43:13.198Z,908
2022-08-24T05:44:29.384Z,952
2022-08-24T05:45:45.572Z,960
2022-08-24T05:47:01.777Z,964
2022-08-24T05:48:17.965Z,1004
2022-08-24T05:49:33.850Z,1028
2022-08-24T05:50:50.343Z,1052
2022-08-24T05:52:06.516Z,1024
2022-08-24T05:53:22.712Z,988
2022-08-24T05:54:37.906Z,976
2022-08-24T05:55:54.091Z,896
2022-08-24T05:57:10.306Z,920
2022-08-24T05:58:26.491Z,1152
2022-08-24T05:59:42.681Z,1240
2022-08-24T06:00:58.870Z,1252
2022-08-24T06:02:15.053Z,1380
2022-08-24T06:03:31.242Z,1456
2022-08-24T06:04:47.411Z,1444
2022-08-24T06:06:03.632Z,1512
2022-08-24T06:07:19.807Z,1348
2022-08-24T06:08:36.010Z,1356
2022-08-24T06:09:52.198Z,1404
2022-08-24T06:11:07.389Z,1632
2022-08-24T06:12:23.583Z,1620
2022-08-24T06:13:39.779Z,1552
2022-08-24T06:14:55.953Z,1368
2022-08-24T06:16:12.149Z,1556
2022-08-24T06:17:28.310Z,1676
2022-08-24T06:18:44.523Z,1572
2022-08-24T06:20:00.710Z,1376
2022-08-24T06:21:16.902Z,1696
2022-08-24T06:22:33.094Z,1788
2022-08-24T06:23:49.275Z,1576
2022-08-24T06:25:05.453Z,1672
2022-08-24T06:26:21.670Z,1648
2022-08-24T06:27:36.861Z,1392
2022-08-24T06:28:53.066Z,1248
2022-08-24T06:30:09.248Z,1312
2022-08-24T06:31:25.431Z,1400
2022-08-24T06:32:41.626Z,1472
2022-08-24T06:33:57.788Z,1508
2022-08-24T06:35:13.016Z,1504
2022-08-24T06:36:29.215Z,1720
2022-08-24T06:37:45.408Z,1936
2022-08-24T06:39:01.592Z,1964
2022-08-24T06:40:17.750Z,1976
2022-08-24T06:41:33.930Z,2196
2022-08-24T06:42:50.167Z,2384
2022-08-24T06:44:06.348Z,2396
2022-08-24T06:45:22.542Z,2340
2022-08-24T06:46:38.729Z,2080
2022-08-24T06:47:54.913Z,1988
2022-08-24T06:49:11.110Z,2072
2022-08-24T06:50:27.306Z,2044
2022-08-24T06:51:42.493Z,1976
2022-08-24T06:52:58.690Z,1920
2022-08-24T06:54:14.884Z,2132
2022-08-24T06:55:31.073Z,2344
2022-08-24T06:56:47.258Z,2524
2022-08-24T06:58:03.401Z,2508
2022-08-24T06:59:19.595Z,2476
2022-08-24T07:00:35.833Z,2612
2022-08-24T07:01:52.004Z,2576
2022-08-24T07:03:08.161Z,2504
2022-08-24T07:04:24.382Z,2556
2022-08-24T07:05:40.582Z,2588
2022-08-24T07:06:56.725Z,2568
2022-08-24T07:08:11.970Z,2860
2022-08-24T07:09:28.160Z,2728
2022-08-24T07:10:44.347Z,2828
2022-08-24T07:12:00.503Z,2560
2022-08-24T07:13:16.737Z,2572
2022-08-24T07:14:32.911Z,2948
2022-08-24T07:15:49.103Z,2976
2022-08-24T07:17:05.293Z,2924
2022-08-24T07:18:21.439Z,2924
2022-08-24T07:19:37.632Z,2788
2022-08-24T07:20:53.861Z,2812
2022-08-24T07:22:10.049Z,2824
2022-08-24T07:23:26.252Z,2932
2022-08-24T07:24:41.458Z,2952
2022-08-24T07:25:57.590Z,3156
2022-08-24T07:27:13.836Z,3348
2022-08-24T07:28:29.970Z,3332
2022-08-24T07:29:46.212Z,3324
2022-08-24T07:31:02.396Z,3272
2022-08-24T07:32:18.575Z,3392
2022-08-24T07:33:34.724Z,3660
2022-08-24T07:34:50.957Z,3540
2022-08-24T07:36:07.158Z,3516
2022-08-24T07:37:23.326Z,3416
2022-08-24T07:38:39.519Z,3364
2022-08-24T07:39:55.713Z,3632
2022-08-24T07:41:10.000Z,3284
2022-08-24T07:42:27.099Z,3200
2022-08-24T07:43:43.248Z,3552
2022-08-24T07:44:59.480Z,3524
2022-08-24T07:46:15.670Z,3320
2022-08-24T07:47:31.796Z,3008
2022-08-24T07:48:48.029Z,2832
2022-08-24T07:50:04.184Z,2968
2022-08-24T07:51:20.414Z,3244
2022-08-24T07:52:36.594Z,3676
2022-08-24T07:53:52.779Z,3320
2022-08-24T07:55:08.974Z,2912
2022-08-24T07:56:25.122Z,2568
2022-08-24T07:57:40.370Z,2324
2022-08-24T07:58:56.548Z,1816
2022-08-24T08:00:12.744Z,1676
2022-08-24T08:01:28.920Z,1420
2022-08-24T08:02:45.065Z,1536
2022-08-24T08:04:01.244Z,1708
2022-08-24T08:05:17.482Z,2000
2022-08-24T08:06:33.684Z,2000
2022-08-24T08:07:49.860Z,2048
2022-08-24T08:09:06.047Z,2600
2022-08-24T08:10:22.195Z,2852
2022-08-24T08:11:38.383Z,3260
2022-08-24T08:12:54.620Z,3372
2022-08-24T08:14:09.814Z,3224
2022-08-24T08:15:25.997Z,2776
2022-08-24T08:16:42.190Z,2848
2022-08-24T08:17:58.386Z,2808
2022-08-24T08:19:14.518Z,2944
2022-08-24T08:20:30.752Z,2884
2022-08-24T08:21:46.939Z,2752
2022-08-24T08:23:03.137Z,2448
2022-08-24T08:24:19.314Z,2944
2022-08-24T08:25:35.498Z,3864
2022-08-24T08:26:51.683Z,4224
2022-08-24T08:28:07.833Z,4464
2022-08-24T08:29:24.059Z,4056
2022-08-24T08:30:39.262Z,3500
2022-08-24T08:31:55.461Z,3016
2022-08-24T08:33:11.640Z,3060
2022-08-24T08:34:27.836Z,3628
2022-08-24T08:35:44.009Z,4072
2022-08-24T08:37:00.212Z,4148
2022-08-24T08:38:16.399Z,4144
2022-08-24T08:39:32.580Z,4260
2022-08-24T08:40:48.717Z,4568
2022-08-24T08:42:04.906Z,4632
2022-08-24T08:43:21.154Z,4476
2022-08-24T08:44:37.326Z,4660
2022-08-24T08:45:53.510Z,4456
2022-08-24T08:47:08.715Z,4080
2022-08-24T08:48:24.911Z,4096
2022-08-24T08:49:41.039Z,3824
2022-08-24T08:50:57.284Z,3632
2022-08-24T08:52:13.406Z,3644
2022-08-24T08:53:29.664Z,3572
2022-08-24T08:54:45.848Z,3408
2022-08-24T08:56:02.024Z,3316
2022-08-24T08:57:18.164Z,3364
2022-08-24T08:58:34.413Z,3208
2022-08-24T08:59:50.597Z,3252
2022-08-24T09:01:06.926Z,3440
2022-08-24T09:02:23.117Z,3560
2022-08-24T09:03:38.318Z,3520
2022-08-24T09:04:54.448Z,3368
2022-08-24T09:06:10.701Z,3236
2022-08-24T09:07:26.890Z,3036
2022-08-24T09:08:43.063Z,2792
2022-08-24T09:09:59.265Z,2772
2022-08-24T09:11:15.448Z,3100
2022-08-24T09:12:31.576Z,3388
2022-08-24T09:13:47.824Z,3596
2022-08-24T09:15:04.005Z,3832
2022-08-24T09:16:20.187Z,3972
2022-08-24T09:17:36.381Z,3912
2022-08-24T09:18:52.568Z,3704
2022-08-24T09:20:07.702Z,3260
2022-08-24T09:21:23.967Z,2916
2022-08-24T09:22:40.141Z,2932
2022-08-24T09:23:56.343Z,3172
2022-08-24T09:25:12.516Z,3596
2022-08-24T09:26:28.710Z,4320
2022-08-24T09:27:44.897Z,5480
2022-08-24T09:29:01.084Z,5792
2022-08-24T09:30:17.271Z,6012
2022-08-24T09:31:33.387Z,6000
2022-08-24T09:32:49.647Z,5920
2022-08-24T09:34:05.839Z,5752
2022-08-24T09:35:21.964Z,5400
2022-08-24T09:36:37.228Z,5040
2022-08-24T09:37:53.356Z,4956
2022-08-24T09:39:09.524Z,4772
2022-08-24T09:40:25.796Z,4540
2022-08-24T09:41:41.968Z,4336
2022-08-24T09:42:58.095Z,4356
2022-08-24T09:44:14.293Z,4352
2022-08-24T09:45:30.544Z,4388
2022-08-24T09:46:46.730Z,4472
2022-08-24T09:48:02.925Z,4424
2022-08-24T09:49:19.104Z,4312
2022-08-24T09:50:35.287Z,4068
2022-08-24T09:51:51.476Z,3940
2022-08-24T09:53:06.611Z,4236
2022-08-24T09:54:22.861Z,5124
2022-08-24T09:55:39.058Z,5876
2022-08-24T09:56:55.177Z,5800
2022-08-24T09:58:11.360Z,6048
2022-08-24T09:59:27.626Z,5600
2022-08-24T10:00:43.736Z,5268
2022-08-24T10:01:59.996Z,5792
2022-08-24T10:03:16.111Z,6480
2022-08-24T10:04:32.372Z,7072
2022-08-24T10:05:48.485Z,7220
2022-08-24T10:07:04.741Z,7184
2022-08-24T10:08:20.866Z,7572
2022-08-24T10:09:36.134Z,7564
2022-08-24T10:10:52.313Z,8352
2022-08-24T10:12:08.501Z,7440
2022-08-24T10:13:24.632Z,5808
2022-08-24T10:14:40.891Z,4368
2022-08-24T10:15:57.068Z,3764
2022-08-24T10:17:13.259Z,3872
2022-08-24T10:18:29.445Z,4780
2022-08-24T10:19:45.555Z,5136
2022-08-24T10:21:01.822Z,5584
2022-08-24T10:22:17.929Z,6280
2022-08-24T10:23:34.204Z,6480
2022-08-24T10:24:50.385Z,6736
2022-08-24T10:26:05.591Z,6000
2022-08-24T10:27:21.771Z,5876
2022-08-24T10:28:37.894Z,4940
2022-08-24T10:29:54.152Z,4740
2022-08-24T10:31:10.331Z,4588
2022-08-24T10:32:26.522Z,4828
2022-08-24T10:33:42.723Z,4728
2022-08-24T10:34:58.814Z,4668
2022-08-24T10:36:15.006Z,4696
2022-08-24T10:37:31.265Z,4232
2022-08-24T10:38:47.379Z,4592
2022-08-24T10:40:03.640Z,6032
2022-08-24T10:41:19.766Z,7452
2022-08-24T10:42:35.042Z,6980
2022-08-24T10:43:51.139Z,6692
2022-08-24T10:45:07.423Z,6500
2022-08-24T10:46:23.594Z,6552
2022-08-24T10:47:39.787Z,6876
2022-08-24T10:48:55.901Z,6612
2022-08-24T10:50:11.096Z,5788
2022-08-24T10:51:27.282Z,5192
2022-08-24T10:52:43.553Z,4456
2022-08-24T10:53:59.741Z,4656
2022-08-24T10:55:15.939Z,5328
2022-08-24T10:56:32.121Z,5472
2022-08-24T10:57:48.303Z,6524
2022-08-24T10:59:04.493Z,6412
2022-08-24T11:00:20.688Z,5844
2022-08-24T11:01:36.866Z,8032
2022-08-24T11:02:53.069Z,6772
2022-08-24T11:04:09.242Z,6636
2022-08-24T11:05:25.434Z,7012
2022-08-24T11:06:40.558Z,6628
2022-08-24T11:07:56.824Z,6492
2022-08-24T11:09:12.922Z,6252
2022-08-24T11:10:29.199Z,6316
2022-08-24T11:11:45.399Z,6452
2022-08-24T11:13:01.489Z,6484
2022-08-24T11:14:17.765Z,7036
2022-08-24T11:15:33.946Z,6644
2022-08-24T11:16:50.046Z,9960
2022-08-24T11:18:06.325Z,8408
2022-08-24T11:19:22.426Z,8848
2022-08-24T11:20:38.703Z,10572
2022-08-24T11:21:54.794Z,10912
2022-08-24T11:23:10.102Z,10368
2022-08-24T11:24:26.187Z,9920
2022-08-24T11:25:42.375Z,10640
2022-08-24T11:26:58.655Z,8736
2022-08-24T11:28:14.850Z,12104
2022-08-24T11:29:30.949Z,8592
2022-08-24T11:30:47.220Z,6368
2022-08-24T11:32:03.318Z,10544
2022-08-24T11:33:19.585Z,13000
2022-08-24T11:34:35.780Z,9208
2022-08-24T11:35:51.977Z,11808
2022-08-24T11:37:08.065Z,9096
2022-08-24T11:38:24.345Z,5992
2022-08-24T11:39:39.553Z,4620
2022-08-24T11:40:55.653Z,5104
2022-08-24T11:42:11.925Z,4652
2022-08-24T11:43:28.112Z,46464
2022-08-24T11:44:44.213Z,55840
2022-08-24T11:46:00.392Z,58016
2022-08-24T11:47:16.583Z,54016
2022-08-24T11:48:32.871Z,50208
2022-08-24T11:49:49.058Z,56032
2022-08-24T11:51:05.146Z,56864
2022-08-24T11:52:21.326Z,56544
2022-08-24T11:53:37.611Z,59296
2022-08-24T11:54:53.795Z,56736
2022-08-24T11:56:09.000Z,56608
2022-08-24T11:57:25.086Z,59168
2022-08-24T11:58:41.370Z,60736
2022-08-24T11:59:57.476Z,60128
2022-08-24T12:01:13.747Z,61184
2022-08-24T12:02:29.849Z,64128
2022-08-24T12:03:46.033Z,65536
2022-08-24T12:05:02.320Z,62656
2022-08-24T12:06:18.498Z,13136
2022-08-24T12:07:34.601Z,11836
2022-08-24T12:08:50.885Z,11368
2022-08-24T12:10:06.969Z,7800
2022-08-24T12:11:23.262Z,7896
2022-08-24T12:12:38.458Z,7224
2022-08-24T12:13:54.668Z,6020
2022-08-24T12:15:10.832Z,5936
2022-08-24T12:16:26.914Z,5680
2022-08-24T12:17:43.103Z,6184
2022-08-24T12:18:59.397Z,7368
2022-08-24T12:20:15.495Z,15684
2022-08-24T12:21:31.770Z,65504
2022-08-24T12:22:47.864Z,21696
2022-08-24T12:24:04.153Z,6736
2022-08-24T12:25:20.341Z,6100
2022-08-24T12:26:36.526Z,5900
2022-08-24T12:27:52.701Z,6212
2022-08-24T12:29:07.822Z,11832
2022-08-24T12:30:24.003Z,71552
2022-08-24T12:31:40.288Z,69888
2022-08-24T12:32:56.466Z,70848
2022-08-24T12:34:12.667Z,67904
2022-08-24T12:35:28.848Z,67552
2022-08-24T12:36:44.926Z,65248
2022-08-24T12:38:01.115Z,66048
2022-08-24T12:39:17.420Z,66528
2022-08-24T12:40:33.602Z,64928
2022-08-24T12:41:49.688Z,62880
2022-08-24T12:43:05.874Z,62048
2022-08-24T12:44:22.174Z,63488
2022-08-24T12:45:37.271Z,64384
2022-08-24T12:46:53.552Z,64704
2022-08-24T12:48:09.741Z,63200
2022-08-24T12:49:25.925Z,61952
2022-08-24T12:50:42.118Z,63232
2022-08-24T12:51:58.313Z,63104
2022-08-24T12:53:14.389Z,61888
2022-08-24T12:54:30.694Z,60160
2022-08-24T12:55:46.868Z,60832
2022-08-24T12:57:03.055Z,59648
2022-08-24T12:58:19.147Z,59488
2022-08-24T12:59:35.442Z,62784
2022-08-24T13:00:51.520Z,63904
2022-08-24T13:02:06.824Z,37376
2022-08-24T13:03:22.916Z,61696
2022-08-24T13:04:39.095Z,61632
2022-08-24T13:05:55.274Z,61056
2022-08-24T13:07:11.472Z,62848
2022-08-24T13:08:27.654Z,28256
2022-08-24T13:09:43.957Z,64672
2022-08-24T13:11:00.035Z,61376
2022-08-24T13:12:16.340Z,67328
2022-08-24T13:13:32.401Z,66816
2022-08-24T13:14:48.710Z,69408
2022-08-24T13:16:04.792Z,69152
2022-08-24T13:17:21.074Z,67648
2022-08-24T13:18:36.287Z,69152
2022-08-24T13:19:52.470Z,69120
2022-08-24T13:21:08.542Z,67872
2022-08-24T13:22:24.860Z,69504
2022-08-24T13:23:40.937Z,68384
2022-08-24T13:24:57.236Z,57568
2022-08-24T13:26:13.310Z,8880
2022-08-24T13:27:29.601Z,6960
2022-08-24T13:28:45.795Z,5272
2022-08-24T13:30:01.976Z,4364
2022-08-24T13:31:18.049Z,3760
2022-08-24T13:32:34.249Z,3552
2022-08-24T13:35:06.728Z,3652
2022-08-24T13:36:21.938Z,3744
2022-08-24T13:37:38.120Z,3648
2022-08-24T13:38:54.194Z,3488
2022-08-24T13:40:10.494Z,3608
2022-08-24T13:41:26.566Z,3684
2022-08-24T13:42:42.876Z,3576
2022-08-24T13:43:59.062Z,3304
2022-08-24T13:45:15.121Z,2988
2022-08-24T13:46:31.319Z,3128
2022-08-24T13:47:47.629Z,3368
2022-08-24T13:49:03.807Z,4456
2022-08-24T13:50:19.998Z,5756
2022-08-24T13:51:36.181Z,5812
2022-08-24T13:52:51.382Z,5072
2022-08-24T13:54:07.464Z,5064
2022-08-24T13:55:23.756Z,5348
2022-08-24T13:56:39.957Z,6388
2022-08-24T13:57:56.018Z,8188
2022-08-24T13:59:12.319Z,16440
2022-08-24T14:00:28.503Z,64256
2022-08-24T14:01:44.587Z,63264
2022-08-24T14:03:00.896Z,60288
2022-08-24T14:04:17.081Z,61184
2022-08-24T14:05:33.270Z,60576
2022-08-24T14:06:49.448Z,58304
2022-08-24T14:08:05.642Z,55232
2022-08-24T14:09:20.710Z,56864
2022-08-24T14:10:37.028Z,55264
2022-08-24T14:11:53.210Z,53408
2022-08-24T14:13:09.411Z,51456
2022-08-24T14:14:25.585Z,15772
2022-08-24T14:15:41.773Z,10524
2022-08-24T14:16:57.851Z,50624
2022-08-24T14:18:14.161Z,24384
2022-08-24T14:19:30.347Z,7156
2022-08-24T14:20:46.396Z,9456
2022-08-24T14:22:02.722Z,4596
2022-08-24T14:23:18.903Z,3428
2022-08-24T14:24:34.966Z,3056
2022-08-24T14:25:50.301Z,2928
2022-08-24T14:27:06.480Z,2768
2022-08-24T14:28:22.665Z,2732
2022-08-24T14:29:38.851Z,2748
2022-08-24T14:30:55.043Z,2792
2022-08-24T14:32:11.102Z,2824
2022-08-24T14:33:27.412Z,2756
2022-08-24T14:34:43.473Z,2964
2022-08-24T14:35:59.787Z,3800
2022-08-24T14:37:15.978Z,5772
2022-08-24T14:38:32.180Z,6188
2022-08-24T14:39:48.227Z,3592
2022-08-24T14:41:04.549Z,3024
2022-08-24T14:42:19.625Z,3496
2022-08-24T14:43:35.803Z,2952
2022-08-24T14:44:52.135Z,3016
2022-08-24T14:46:08.322Z,3296
2022-08-24T14:47:24.382Z,3468
2022-08-24T14:48:40.551Z,3368
2022-08-24T14:49:56.868Z,3128
2022-08-24T14:51:13.057Z,3072
2022-08-24T14:52:29.241Z,3080
2022-08-24T14:53:45.435Z,3256
2022-08-24T14:55:01.502Z,3668
2022-08-24T14:56:17.810Z,3648
2022-08-24T14:57:33.995Z,3568
2022-08-24T14:58:49.064Z,3368
2022-08-24T15:00:05.394Z,3284
2022-08-24T15:01:21.445Z,3264
2022-08-24T15:02:37.770Z,3316
2022-08-24T15:03:53.818Z,3260
2022-08-24T15:05:09.029Z,3232
2022-08-24T15:06:25.343Z,3112
2022-08-24T15:07:41.542Z,3040
2022-08-24T15:08:57.593Z,2984
2022-08-24T15:10:13.771Z,2960
2022-08-24T15:11:30.110Z,2948
2022-08-24T15:12:46.280Z,2924
2022-08-24T15:14:02.351Z,2896
2022-08-24T15:15:18.656Z,2872
2022-08-24T15:16:34.855Z,2844
2022-08-24T15:17:50.914Z,2804
2022-08-24T15:19:07.219Z,2828
2022-08-24T15:20:23.404Z,2916
2022-08-24T15:21:38.622Z,2972
2022-08-24T15:22:54.805Z,3036
2022-08-24T15:24:10.994Z,3132
2022-08-24T15:25:27.049Z,3188
2022-08-24T15:26:43.231Z,3196
2022-08-24T15:27:59.410Z,3192
2022-08-24T15:29:15.747Z,3392
2022-08-24T15:30:31.934Z,3620
2022-08-24T15:31:48.120Z,3800
2022-08-24T15:33:04.173Z,4032
2022-08-24T15:34:20.362Z,4248
2022-08-24T15:35:36.690Z,4308
2022-08-24T15:36:52.722Z,4116
2022-08-24T15:38:08.070Z,3992
2022-08-24T15:39:24.265Z,3884
2022-08-24T15:40:40.301Z,3860
2022-08-24T15:41:56.639Z,3964
2022-08-24T15:43:12.821Z,3972
2022-08-24T15:44:29.000Z,3760
2022-08-24T15:45:45.205Z,3476
2022-08-24T15:47:01.389Z,3100
2022-08-24T15:48:17.433Z,2856
2022-08-24T15:49:33.763Z,2564
2022-08-24T15:50:49.946Z,2408
2022-08-24T15:52:05.990Z,2204
2022-08-24T15:53:22.321Z,2016
2022-08-24T15:54:37.520Z,1812
2022-08-24T15:55:53.573Z,1652
2022-08-24T15:57:09.896Z,1548
2022-08-24T15:58:26.089Z,1472
2022-08-24T15:59:42.285Z,1512
2022-08-24T16:00:58.461Z,1580
2022-08-24T16:02:14.646Z,1732
2022-08-24T16:03:30.838Z,2136
2022-08-24T16:04:46.893Z,2436
2022-08-24T16:06:03.212Z,2340
2022-08-24T16:07:19.405Z,2168
2022-08-24T16:08:35.596Z,1948
2022-08-24T16:09:51.783Z,1836
2022-08-24T16:11:06.839Z,1792
2022-08-24T16:12:23.172Z,1784
2022-08-24T16:13:39.360Z,1820
2022-08-24T16:14:55.544Z,1820
2022-08-24T16:16:11.723Z,1784
2022-08-24T16:17:27.781Z,1756
2022-08-24T16:18:43.955Z,1736
2022-08-24T16:20:00.302Z,1700
2022-08-24T16:21:16.488Z,1660
2022-08-24T16:22:32.661Z,1608
2022-08-24T16:23:48.863Z,1600
2022-08-24T16:25:05.045Z,1608
2022-08-24T16:26:21.074Z,1576
2022-08-24T16:27:36.442Z,1540
2022-08-24T16:28:52.628Z,1504
2022-08-24T16:30:08.666Z,1472
2022-08-24T16:31:25.003Z,1428
2022-08-24T16:32:41.029Z,1392
2022-08-24T16:33:57.229Z,1372
2022-08-24T16:35:13.563Z,1344
2022-08-24T16:36:29.745Z,1324
2022-08-24T16:37:45.928Z,1308
2022-08-24T16:39:02.129Z,1296
2022-08-24T16:40:18.303Z,1280
2022-08-24T16:41:34.340Z,1272
2022-08-24T16:42:50.526Z,1256
2022-08-24T16:44:05.883Z,1244
2022-08-24T16:45:22.086Z,1236
2022-08-24T16:46:38.274Z,1224
2022-08-24T16:47:54.461Z,1208
2022-08-24T16:49:10.496Z,1192
2022-08-24T16:50:26.835Z,1180
2022-08-24T16:51:43.020Z,1160
2022-08-24T16:52:59.197Z,1156
2022-08-24T16:54:15.406Z,1156
2022-08-24T16:55:31.581Z,1144
2022-08-24T16:56:47.607Z,1120
2022-08-24T16:58:03.944Z,1096
2022-08-24T16:59:20.149Z,1064
2022-08-24T17:00:35.349Z,1036
2022-08-24T17:01:51.538Z,1000
2022-08-24T17:03:07.725Z,960
2022-08-24T17:04:23.741Z,920
2022-08-24T17:05:40.098Z,896
2022-08-24T17:06:56.285Z,876
2022-08-24T17:08:12.466Z,860
2022-08-24T17:09:28.656Z,856
2022-08-24T17:10:44.683Z,892
2022-08-24T17:12:00.881Z,984
2022-08-24T17:13:17.232Z,1100
2022-08-24T17:14:33.408Z,1184
2022-08-24T17:15:49.593Z,1216
2022-08-24T17:17:04.813Z,1168
2022-08-24T17:18:20.995Z,1020